sensor_id;sensor_type;location;lat;lon;timestamp;P1;durP1;ratioP1;P2;durP2;ratioP2
57778;SDS011;43608;49.486;9.640;2023-05-21T00:00:12;8.68;;;7.75;;
57778;SDS011;43608;49.486;9.640;2023-05-21T00:00:43;7.85;;;6.95;;
57778;SDS011;43608;49.486;9.640;2023-05-21T00:01:13;8.52;;;7.25;;
57778;SDS011;43608;49.486;9.640;2023-05-21T00:01:45;8.05;;;7.03;;
57778;SDS011;43608;49.486;9.640;2023-05-21T00:02:17;7.65;;;6.88;;
57778;SDS011;43608;49.486;9.640;2023-05-21T00:02:48;8.02;;;7.20;;
57778;SDS011;43608;49.486;9.640;2023-05-21T00:03:20;8.38;;;7.43;;
57778;SDS011;43608;49.486;9.640;2023-05-21T00:03:50;8.02;;;7.00;;
57778;SDS011;43608;49.486;9.640;2023-05-21T00:04:21;7.97;;;7.13;;
57778;SDS011;43608;49.486;9.640;2023-05-21T00:04:51;8.10;;;7.30;;
57778;SDS011;43608;49.486;9.640;2023-05-21T00:05:22;7.80;;;7.00;;
57778;SDS011;43608;49.486;9.640;2023-05-21T00:05:52;8.30;;;7.38;;
57778;SDS011;43608;49.486;9.640;2023-05-21T00:06:23;8.63;;;7.55;;
57778;SDS011;43608;49.486;9.640;2023-05-21T00:06:54;8.43;;;7.25;;
57778;SDS011;43608;49.486;9.640;2023-05-21T00:07:24;8.13;;;7.32;;
57778;SDS011;43608;49.486;9.640;2023-05-21T00:07:55;7.80;;;7.00;;
57778;SDS011;43608;49.486;9.640;2023-05-21T00:08:25;8.20;;;7.40;;
57778;SDS011;43608;49.486;9.640;2023-05-21T00:08:56;8.15;;;7.30;;
57778;SDS011;43608;49.486;9.640;2023-05-21T00:09:26;7.57;;;6.75;;
57778;SDS011;43608;49.486;9.640;2023-05-21T00:09:56;7.68;;;6.82;;
57778;SDS011;43608;49.486;9.640;2023-05-21T00:10:27;7.80;;;7.00;;
57778;SDS011;43608;49.486;9.640;2023-05-21T00:10:57;7.88;;;7.07;;
57778;SDS011;43608;49.486;9.640;2023-05-21T00:11:28;7.57;;;6.80;;
57778;SDS011;43608;49.486;9.640;2023-05-21T00:11:58;7.35;;;6.65;;
57778;SDS011;43608;49.486;9.640;2023-05-21T00:12:28;7.53;;;6.80;;
57778;SDS011;43608;49.486;9.640;2023-05-21T00:12:59;7.60;;;6.80;;
57778;SDS011;43608;49.486;9.640;2023-05-21T00:13:29;7.80;;;7.00;;
57778;SDS011;43608;49.486;9.640;2023-05-21T00:13:59;7.65;;;6.72;;
57778;SDS011;43608;49.486;9.640;2023-05-21T00:14:30;8.15;;;7.20;;
57778;SDS011;43608;49.486;9.640;2023-05-21T00:15:00;8.07;;;7.20;;
57778;SDS011;43608;49.486;9.640;2023-05-21T00:15:31;7.80;;;7.00;;
57778;SDS011;43608;49.486;9.640;2023-05-21T00:16:01;7.90;;;7.10;;
57778;SDS011;43608;49.486;9.640;2023-05-21T00:16:31;8.00;;;7.20;;
57778;SDS011;43608;49.486;9.640;2023-05-21T00:17:02;8.23;;;7.43;;
57778;SDS011;43608;49.486;9.640;2023-05-21T00:17:32;7.85;;;7.05;;
57778;SDS011;43608;49.486;9.640;2023-05-21T00:18:05;7.85;;;7.05;;
57778;SDS011;43608;49.486;9.640;2023-05-21T00:18:36;8.05;;;7.25;;
57778;SDS011;43608;49.486;9.640;2023-05-21T00:19:08;7.80;;;7.00;;
57778;SDS011;43608;49.486;9.640;2023-05-21T00:19:39;8.10;;;7.30;;
57778;SDS011;43608;49.486;9.640;2023-05-21T00:20:09;8.00;;;7.20;;
57778;SDS011;43608;49.486;9.640;2023-05-21T00:20:40;8.40;;;7.55;;
57778;SDS011;43608;49.486;9.640;2023-05-21T00:21:10;7.10;;;6.38;;
57778;SDS011;43608;49.486;9.640;2023-05-21T00:21:41;7.50;;;6.70;;
57778;SDS011;43608;49.486;9.640;2023-05-21T00:22:11;8.00;;;7.05;;
57778;SDS011;43608;49.486;9.640;2023-05-21T00:22:43;8.25;;;7.30;;
57778;SDS011;43608;49.486;9.640;2023-05-21T00:23:13;7.93;;;7.13;;
57778;SDS011;43608;49.486;9.640;2023-05-21T00:23:53;8.13;;;7.30;;
57778;SDS011;43608;49.486;9.640;2023-05-21T00:24:25;7.35;;;6.53;;
57778;SDS011;43608;49.486;9.640;2023-05-21T00:24:55;8.30;;;7.35;;
57778;SDS011;43608;49.486;9.640;2023-05-21T00:25:25;7.88;;;7.07;;
57778;SDS011;43608;49.486;9.640;2023-05-21T00:25:56;8.25;;;7.40;;
57778;SDS011;43608;49.486;9.640;2023-05-21T00:26:26;7.53;;;6.72;;
57778;SDS011;43608;49.486;9.640;2023-05-21T00:26:57;8.35;;;7.10;;
57778;SDS011;43608;49.486;9.640;2023-05-21T00:27:27;7.60;;;6.80;;
57778;SDS011;43608;49.486;9.640;2023-05-21T00:27:57;7.97;;;7.18;;
57778;SDS011;43608;49.486;9.640;2023-05-21T00:28:28;8.45;;;7.65;;
57778;SDS011;43608;49.486;9.640;2023-05-21T00:28:58;7.45;;;6.72;;
57778;SDS011;43608;49.486;9.640;2023-05-21T00:29:28;7.60;;;6.57;;
57778;SDS011;43608;49.486;9.640;2023-05-21T00:29:59;7.97;;;7.18;;
57778;SDS011;43608;49.486;9.640;2023-05-21T00:30:29;8.05;;;7.22;;
57778;SDS011;43608;49.486;9.640;2023-05-21T00:31:00;8.27;;;7.43;;
57778;SDS011;43608;49.486;9.640;2023-05-21T00:31:30;7.95;;;7.15;;
57778;SDS011;43608;49.486;9.640;2023-05-21T00:32:01;7.88;;;7.07;;
57778;SDS011;43608;49.486;9.640;2023-05-21T00:32:31;7.70;;;6.93;;
57778;SDS011;43608;49.486;9.640;2023-05-21T00:33:01;7.80;;;7.00;;
57778;SDS011;43608;49.486;9.640;2023-05-21T00:33:33;7.80;;;7.00;;
57778;SDS011;43608;49.486;9.640;2023-05-21T00:34:03;8.40;;;7.32;;
57778;SDS011;43608;49.486;9.640;2023-05-21T00:34:33;7.80;;;7.00;;
57778;SDS011;43608;49.486;9.640;2023-05-21T00:35:04;8.35;;;7.40;;
57778;SDS011;43608;49.486;9.640;2023-05-21T00:35:35;7.97;;;7.18;;
57778;SDS011;43608;49.486;9.640;2023-05-21T00:36:05;8.43;;;7.53;;
57778;SDS011;43608;49.486;9.640;2023-05-21T00:36:35;8.43;;;7.53;;
57778;SDS011;43608;49.486;9.640;2023-05-21T00:37:06;8.05;;;7.25;;
57778;SDS011;43608;49.486;9.640;2023-05-21T00:37:38;7.88;;;7.07;;
57778;SDS011;43608;49.486;9.640;2023-05-21T00:38:09;8.68;;;7.22;;
57778;SDS011;43608;49.486;9.640;2023-05-21T00:38:40;8.25;;;7.35;;
57778;SDS011;43608;49.486;9.640;2023-05-21T00:39:14;7.53;;;6.72;;
57778;SDS011;43608;49.486;9.640;2023-05-21T00:39:45;7.55;;;6.80;;
57778;SDS011;43608;49.486;9.640;2023-05-21T00:40:16;8.02;;;7.22;;
57778;SDS011;43608;49.486;9.640;2023-05-21T00:40:48;8.63;;;7.00;;
57778;SDS011;43608;49.486;9.640;2023-05-21T00:41:19;7.65;;;6.85;;
57778;SDS011;43608;49.486;9.640;2023-05-21T00:41:51;7.80;;;7.00;;
57778;SDS011;43608;49.486;9.640;2023-05-21T00:42:22;8.20;;;7.38;;
57778;SDS011;43608;49.486;9.640;2023-05-21T00:42:56;8.18;;;7.38;;
57778;SDS011;43608;49.486;9.640;2023-05-21T00:43:27;7.88;;;7.07;;
57778;SDS011;43608;49.486;9.640;2023-05-21T00:43:57;7.75;;;6.82;;
57778;SDS011;43608;49.486;9.640;2023-05-21T00:44:29;7.78;;;6.97;;
57778;SDS011;43608;49.486;9.640;2023-05-21T00:45:03;7.63;;;6.85;;
57778;SDS011;43608;49.486;9.640;2023-05-21T00:45:34;7.40;;;6.60;;
57778;SDS011;43608;49.486;9.640;2023-05-21T00:46:06;8.10;;;7.20;;
57778;SDS011;43608;49.486;9.640;2023-05-21T00:46:40;8.02;;;7.22;;
57778;SDS011;43608;49.486;9.640;2023-05-21T00:47:13;9.10;;;7.57;;
57778;SDS011;43608;49.486;9.640;2023-05-21T00:47:43;7.70;;;6.90;;
57778;SDS011;43608;49.486;9.640;2023-05-21T00:48:14;7.85;;;7.00;;
57778;SDS011;43608;49.486;9.640;2023-05-21T00:48:45;7.93;;;7.13;;
57778;SDS011;43608;49.486;9.640;2023-05-21T00:49:16;8.38;;;7.57;;
57778;SDS011;43608;49.486;9.640;2023-05-21T00:49:47;8.93;;;8.02;;
57778;SDS011;43608;49.486;9.640;2023-05-21T00:50:21;8.45;;;7.55;;
57778;SDS011;43608;49.486;9.640;2023-05-21T00:50:51;8.70;;;7.80;;
57778;SDS011;43608;49.486;9.640;2023-05-21T00:51:22;8.73;;;7.82;;
57778;SDS011;43608;49.486;9.640;2023-05-21T00:51:53;8.43;;;7.55;;
57778;SDS011;43608;49.486;9.640;2023-05-21T00:52:24;8.18;;;7.35;;
57778;SDS011;43608;49.486;9.640;2023-05-21T00:52:55;8.32;;;7.30;;
57778;SDS011;43608;49.486;9.640;2023-05-21T00:53:26;8.52;;;7.63;;
57778;SDS011;43608;49.486;9.640;2023-05-21T00:53:56;8.07;;;7.28;;
57778;SDS011;43608;49.486;9.640;2023-05-21T00:54:27;8.27;;;7.45;;
57778;SDS011;43608;49.486;9.640;2023-05-21T00:54:58;7.82;;;7.03;;
57778;SDS011;43608;49.486;9.640;2023-05-21T00:55:28;8.65;;;7.75;;
57778;SDS011;43608;49.486;9.640;2023-05-21T00:55:59;8.75;;;7.85;;
57778;SDS011;43608;49.486;9.640;2023-05-21T00:56:30;8.40;;;7.50;;
57778;SDS011;43608;49.486;9.640;2023-05-21T00:57:01;8.38;;;7.45;;
57778;SDS011;43608;49.486;9.640;2023-05-21T00:57:33;8.00;;;7.20;;
57778;SDS011;43608;49.486;9.640;2023-05-21T00:58:03;8.65;;;7.75;;
57778;SDS011;43608;49.486;9.640;2023-05-21T00:58:34;8.40;;;7.50;;
57778;SDS011;43608;49.486;9.640;2023-05-21T00:59:06;8.13;;;7.32;;
57778;SDS011;43608;49.486;9.640;2023-05-21T00:59:36;8.45;;;7.55;;
57778;SDS011;43608;49.486;9.640;2023-05-21T01:00:07;8.35;;;7.45;;
57778;SDS011;43608;49.486;9.640;2023-05-21T01:00:37;8.30;;;7.32;;
57778;SDS011;43608;49.486;9.640;2023-05-21T01:01:09;7.57;;;6.82;;
57778;SDS011;43608;49.486;9.640;2023-05-21T01:01:43;7.95;;;7.15;;
57778;SDS011;43608;49.486;9.640;2023-05-21T01:02:14;8.05;;;7.25;;
57778;SDS011;43608;49.486;9.640;2023-05-21T01:02:47;8.18;;;7.28;;
57778;SDS011;43608;49.486;9.640;2023-05-21T01:03:18;8.13;;;6.97;;
57778;SDS011;43608;49.486;9.640;2023-05-21T01:03:49;8.32;;;7.05;;
57778;SDS011;43608;49.486;9.640;2023-05-21T01:04:22;8.07;;;7.28;;
57778;SDS011;43608;49.486;9.640;2023-05-21T01:04:53;8.35;;;7.30;;
57778;SDS011;43608;49.486;9.640;2023-05-21T01:05:25;8.18;;;7.25;;
57778;SDS011;43608;49.486;9.640;2023-05-21T01:05:57;7.97;;;7.18;;
57778;SDS011;43608;49.486;9.640;2023-05-21T01:06:28;8.35;;;7.45;;
57778;SDS011;43608;49.486;9.640;2023-05-21T01:06:59;7.85;;;7.05;;
57778;SDS011;43608;49.486;9.640;2023-05-21T01:07:29;8.43;;;7.53;;
57778;SDS011;43608;49.486;9.640;2023-05-21T01:08:00;8.13;;;7.28;;
57778;SDS011;43608;49.486;9.640;2023-05-21T01:08:31;7.32;;;6.63;;
57778;SDS011;43608;49.486;9.640;2023-05-21T01:09:03;7.70;;;6.90;;
57778;SDS011;43608;49.486;9.640;2023-05-21T01:09:36;8.25;;;7.32;;
57778;SDS011;43608;49.486;9.640;2023-05-21T01:10:06;7.78;;;6.97;;
57778;SDS011;43608;49.486;9.640;2023-05-21T01:10:38;8.35;;;7.00;;
57778;SDS011;43608;49.486;9.640;2023-05-21T01:11:09;8.05;;;7.25;;
57778;SDS011;43608;49.486;9.640;2023-05-21T01:11:41;7.60;;;6.88;;
57778;SDS011;43608;49.486;9.640;2023-05-21T01:12:15;8.35;;;7.30;;
57778;SDS011;43608;49.486;9.640;2023-05-21T01:12:46;7.93;;;7.10;;
57778;SDS011;43608;49.486;9.640;2023-05-21T01:13:17;7.80;;;7.00;;
57778;SDS011;43608;49.486;9.640;2023-05-21T01:13:49;7.80;;;7.00;;
57778;SDS011;43608;49.486;9.640;2023-05-21T01:14:20;7.88;;;7.07;;
57778;SDS011;43608;49.486;9.640;2023-05-21T01:14:52;7.90;;;7.10;;
57778;SDS011;43608;49.486;9.640;2023-05-21T01:15:22;7.15;;;6.38;;
57778;SDS011;43608;49.486;9.640;2023-05-21T01:15:53;7.68;;;6.75;;
57778;SDS011;43608;49.486;9.640;2023-05-21T01:16:24;7.57;;;6.78;;
57778;SDS011;43608;49.486;9.640;2023-05-21T01:16:54;7.00;;;6.28;;
57778;SDS011;43608;49.486;9.640;2023-05-21T01:17:25;7.35;;;6.65;;
57778;SDS011;43608;49.486;9.640;2023-05-21T01:17:57;7.05;;;6.35;;
57778;SDS011;43608;49.486;9.640;2023-05-21T01:18:27;7.47;;;6.70;;
57778;SDS011;43608;49.486;9.640;2023-05-21T01:18:58;7.45;;;6.65;;
57778;SDS011;43608;49.486;9.640;2023-05-21T01:19:29;7.65;;;6.68;;
57778;SDS011;43608;49.486;9.640;2023-05-21T01:20:01;7.13;;;6.43;;
57778;SDS011;43608;49.486;9.640;2023-05-21T01:20:39;7.30;;;6.50;;
57778;SDS011;43608;49.486;9.640;2023-05-21T01:21:11;7.00;;;6.10;;
57778;SDS011;43608;49.486;9.640;2023-05-21T01:21:55;7.85;;;7.05;;
57778;SDS011;43608;49.486;9.640;2023-05-21T01:22:30;7.22;;;6.32;;
57778;SDS011;43608;49.486;9.640;2023-05-21T01:23:01;7.35;;;6.55;;
57778;SDS011;43608;49.486;9.640;2023-05-21T01:23:32;7.65;;;6.85;;
57778;SDS011;43608;49.486;9.640;2023-05-21T01:24:02;7.38;;;6.60;;
57778;SDS011;43608;49.486;9.640;2023-05-21T01:24:34;7.38;;;6.60;;
57778;SDS011;43608;49.486;9.640;2023-05-21T01:25:05;7.50;;;6.70;;
57778;SDS011;43608;49.486;9.640;2023-05-21T01:25:35;7.80;;;6.60;;
57778;SDS011;43608;49.486;9.640;2023-05-21T01:26:06;7.45;;;6.65;;
57778;SDS011;43608;49.486;9.640;2023-05-21T01:26:37;7.32;;;6.45;;
57778;SDS011;43608;49.486;9.640;2023-05-21T01:27:10;7.40;;;6.22;;
57778;SDS011;43608;49.486;9.640;2023-05-21T01:27:40;7.10;;;6.40;;
57778;SDS011;43608;49.486;9.640;2023-05-21T01:28:11;7.18;;;6.47;;
57778;SDS011;43608;49.486;9.640;2023-05-21T01:28:41;7.22;;;6.53;;
57778;SDS011;43608;49.486;9.640;2023-05-21T01:29:12;8.18;;;7.10;;
57778;SDS011;43608;49.486;9.640;2023-05-21T01:29:43;8.00;;;7.10;;
57778;SDS011;43608;49.486;9.640;2023-05-21T01:30:14;7.22;;;6.53;;
57778;SDS011;43608;49.486;9.640;2023-05-21T01:30:45;7.57;;;6.78;;
57778;SDS011;43608;49.486;9.640;2023-05-21T01:31:29;7.75;;;6.90;;
57778;SDS011;43608;49.486;9.640;2023-05-21T01:32:22;7.55;;;6.68;;
57778;SDS011;43608;49.486;9.640;2023-05-21T01:33:09;8.85;;;7.10;;
57778;SDS011;43608;49.486;9.640;2023-05-21T01:33:46;7.80;;;6.97;;
57778;SDS011;43608;49.486;9.640;2023-05-21T01:34:19;8.20;;;7.03;;
57778;SDS011;43608;49.486;9.640;2023-05-21T01:35:16;7.97;;;7.18;;
57778;SDS011;43608;49.486;9.640;2023-05-21T01:36:07;8.00;;;6.90;;
57778;SDS011;43608;49.486;9.640;2023-05-21T01:36:46;8.38;;;7.07;;
57778;SDS011;43608;49.486;9.640;2023-05-21T01:37:26;8.48;;;7.43;;
57778;SDS011;43608;49.486;9.640;2023-05-21T01:38:37;8.48;;;7.50;;
57778;SDS011;43608;49.486;9.640;2023-05-21T01:39:26;8.13;;;7.22;;
57778;SDS011;43608;49.486;9.640;2023-05-21T01:40:23;8.45;;;7.55;;
57778;SDS011;43608;49.486;9.640;2023-05-21T01:41:02;8.30;;;7.03;;
57778;SDS011;43608;49.486;9.640;2023-05-21T01:41:36;8.55;;;7.57;;
57778;SDS011;43608;49.486;9.640;2023-05-21T01:42:11;7.90;;;6.97;;
57778;SDS011;43608;49.486;9.640;2023-05-21T01:42:43;9.38;;;7.50;;
57778;SDS011;43608;49.486;9.640;2023-05-21T01:43:15;8.52;;;7.63;;
57778;SDS011;43608;49.486;9.640;2023-05-21T01:43:47;8.20;;;7.40;;
57778;SDS011;43608;49.486;9.640;2023-05-21T01:44:17;7.82;;;7.00;;
57778;SDS011;43608;49.486;9.640;2023-05-21T01:44:50;8.10;;;7.28;;
57778;SDS011;43608;49.486;9.640;2023-05-21T01:45:23;8.20;;;7.13;;
57778;SDS011;43608;49.486;9.640;2023-05-21T01:45:56;8.45;;;7.32;;
57778;SDS011;43608;49.486;9.640;2023-05-21T01:46:29;8.48;;;7.53;;
57778;SDS011;43608;49.486;9.640;2023-05-21T01:47:00;8.45;;;7.40;;
57778;SDS011;43608;49.486;9.640;2023-05-21T01:47:32;7.85;;;7.05;;
57778;SDS011;43608;49.486;9.640;2023-05-21T01:48:06;8.02;;;7.22;;
57778;SDS011;43608;49.486;9.640;2023-05-21T01:48:38;8.18;;;7.32;;
57778;SDS011;43608;49.486;9.640;2023-05-21T01:49:08;8.38;;;7.22;;
57778;SDS011;43608;49.486;9.640;2023-05-21T01:49:40;8.27;;;7.25;;
57778;SDS011;43608;49.486;9.640;2023-05-21T01:50:11;8.18;;;7.05;;
57778;SDS011;43608;49.486;9.640;2023-05-21T01:50:43;7.97;;;7.18;;
57778;SDS011;43608;49.486;9.640;2023-05-21T01:51:14;7.68;;;6.82;;
57778;SDS011;43608;49.486;9.640;2023-05-21T01:51:45;8.15;;;7.10;;
57778;SDS011;43608;49.486;9.640;2023-05-21T01:52:17;7.93;;;7.13;;
57778;SDS011;43608;49.486;9.640;2023-05-21T01:52:51;7.55;;;6.75;;
57778;SDS011;43608;49.486;9.640;2023-05-21T01:53:23;7.45;;;6.47;;
57778;SDS011;43608;49.486;9.640;2023-05-21T01:53:53;7.63;;;6.82;;
57778;SDS011;43608;49.486;9.640;2023-05-21T01:54:24;7.63;;;6.82;;
57778;SDS011;43608;49.486;9.640;2023-05-21T01:54:55;8.02;;;6.88;;
57778;SDS011;43608;49.486;9.640;2023-05-21T01:55:26;7.20;;;6.47;;
57778;SDS011;43608;49.486;9.640;2023-05-21T01:55:57;7.65;;;6.85;;
57778;SDS011;43608;49.486;9.640;2023-05-21T01:56:28;7.75;;;6.95;;
57778;SDS011;43608;49.486;9.640;2023-05-21T01:56:58;7.53;;;6.72;;
57778;SDS011;43608;49.486;9.640;2023-05-21T01:57:28;7.43;;;6.63;;
57778;SDS011;43608;49.486;9.640;2023-05-21T01:57:59;7.80;;;7.00;;
57778;SDS011;43608;49.486;9.640;2023-05-21T01:58:29;7.43;;;6.65;;
57778;SDS011;43608;49.486;9.640;2023-05-21T01:59:00;7.32;;;6.63;;
57778;SDS011;43608;49.486;9.640;2023-05-21T01:59:30;7.60;;;6.80;;
57778;SDS011;43608;49.486;9.640;2023-05-21T02:00:00;8.73;;;7.28;;
57778;SDS011;43608;49.486;9.640;2023-05-21T02:00:31;7.60;;;6.80;;
57778;SDS011;43608;49.486;9.640;2023-05-21T02:01:03;7.43;;;6.57;;
57778;SDS011;43608;49.486;9.640;2023-05-21T02:01:34;7.82;;;7.03;;
57778;SDS011;43608;49.486;9.640;2023-05-21T02:02:04;7.50;;;6.70;;
57778;SDS011;43608;49.486;9.640;2023-05-21T02:02:34;8.10;;;6.80;;
57778;SDS011;43608;49.486;9.640;2023-05-21T02:03:05;8.00;;;7.10;;
57778;SDS011;43608;49.486;9.640;2023-05-21T02:03:36;7.35;;;6.57;;
57778;SDS011;43608;49.486;9.640;2023-05-21T02:04:07;7.43;;;6.65;;
57778;SDS011;43608;49.486;9.640;2023-05-21T02:04:37;7.72;;;6.93;;
57778;SDS011;43608;49.486;9.640;2023-05-21T02:05:10;7.20;;;6.47;;
57778;SDS011;43608;49.486;9.640;2023-05-21T02:05:40;7.47;;;6.70;;
57778;SDS011;43608;49.486;9.640;2023-05-21T02:06:11;7.78;;;6.97;;
57778;SDS011;43608;49.486;9.640;2023-05-21T02:06:41;8.05;;;7.25;;
57778;SDS011;43608;49.486;9.640;2023-05-21T02:07:13;7.90;;;7.10;;
57778;SDS011;43608;49.486;9.640;2023-05-21T02:07:44;7.63;;;6.82;;
57778;SDS011;43608;49.486;9.640;2023-05-21T02:08:15;7.63;;;6.82;;
57778;SDS011;43608;49.486;9.640;2023-05-21T02:08:45;7.40;;;6.63;;
57778;SDS011;43608;49.486;9.640;2023-05-21T02:09:17;7.82;;;7.03;;
57778;SDS011;43608;49.486;9.640;2023-05-21T02:09:47;7.78;;;6.97;;
57778;SDS011;43608;49.486;9.640;2023-05-21T02:10:17;7.97;;;6.93;;
57778;SDS011;43608;49.486;9.640;2023-05-21T02:10:48;8.02;;;7.20;;
57778;SDS011;43608;49.486;9.640;2023-05-21T02:11:19;8.27;;;7.05;;
57778;SDS011;43608;49.486;9.640;2023-05-21T02:11:49;7.80;;;7.00;;
57778;SDS011;43608;49.486;9.640;2023-05-21T02:12:20;7.88;;;7.05;;
57778;SDS011;43608;49.486;9.640;2023-05-21T02:12:50;7.15;;;6.30;;
57778;SDS011;43608;49.486;9.640;2023-05-21T02:13:20;7.45;;;6.65;;
57778;SDS011;43608;49.486;9.640;2023-05-21T02:13:51;7.43;;;6.63;;
57778;SDS011;43608;49.486;9.640;2023-05-21T02:14:23;8.05;;;6.90;;
57778;SDS011;43608;49.486;9.640;2023-05-21T02:14:56;7.93;;;6.18;;
57778;SDS011;43608;49.486;9.640;2023-05-21T02:15:26;7.43;;;6.72;;
57778;SDS011;43608;49.486;9.640;2023-05-21T02:15:57;6.95;;;6.25;;
57778;SDS011;43608;49.486;9.640;2023-05-21T02:16:27;7.32;;;6.55;;
57778;SDS011;43608;49.486;9.640;2023-05-21T02:16:58;7.13;;;6.43;;
57778;SDS011;43608;49.486;9.640;2023-05-21T02:17:29;6.97;;;6.28;;
57778;SDS011;43608;49.486;9.640;2023-05-21T02:18:02;7.38;;;6.57;;
57778;SDS011;43608;49.486;9.640;2023-05-21T02:18:33;7.80;;;6.60;;
57778;SDS011;43608;49.486;9.640;2023-05-21T02:19:05;7.20;;;6.50;;
57778;SDS011;43608;49.486;9.640;2023-05-21T02:19:36;7.55;;;6.70;;
57778;SDS011;43608;49.486;9.640;2023-05-21T02:20:06;7.03;;;6.32;;
57778;SDS011;43608;49.486;9.640;2023-05-21T02:20:43;7.35;;;6.50;;
57778;SDS011;43608;49.486;9.640;2023-05-21T02:21:13;7.57;;;6.38;;
57778;SDS011;43608;49.486;9.640;2023-05-21T02:21:44;7.40;;;6.53;;
57778;SDS011;43608;49.486;9.640;2023-05-21T02:22:14;7.25;;;6.45;;
57778;SDS011;43608;49.486;9.640;2023-05-21T02:22:46;6.95;;;6.22;;
57778;SDS011;43608;49.486;9.640;2023-05-21T02:23:17;7.40;;;6.28;;
57778;SDS011;43608;49.486;9.640;2023-05-21T02:23:47;6.85;;;6.15;;
57778;SDS011;43608;49.486;9.640;2023-05-21T02:24:18;7.10;;;6.22;;
57778;SDS011;43608;49.486;9.640;2023-05-21T02:24:48;7.40;;;6.63;;
57778;SDS011;43608;49.486;9.640;2023-05-21T02:25:18;6.97;;;6.25;;
57778;SDS011;43608;49.486;9.640;2023-05-21T02:25:49;7.30;;;6.60;;
57778;SDS011;43608;49.486;9.640;2023-05-21T02:26:19;7.28;;;6.57;;
57778;SDS011;43608;49.486;9.640;2023-05-21T02:26:51;7.65;;;6.85;;
57778;SDS011;43608;49.486;9.640;2023-05-21T02:27:22;7.50;;;6.40;;
57778;SDS011;43608;49.486;9.640;2023-05-21T02:27:52;7.82;;;6.88;;
57778;SDS011;43608;49.486;9.640;2023-05-21T02:28:25;7.55;;;6.75;;
57778;SDS011;43608;49.486;9.640;2023-05-21T02:28:56;7.45;;;6.45;;
57778;SDS011;43608;49.486;9.640;2023-05-21T02:29:26;7.63;;;6.78;;
57778;SDS011;43608;49.486;9.640;2023-05-21T02:29:57;7.47;;;6.70;;
57778;SDS011;43608;49.486;9.640;2023-05-21T02:30:27;7.68;;;6.88;;
57778;SDS011;43608;49.486;9.640;2023-05-21T02:30:57;7.57;;;6.78;;
57778;SDS011;43608;49.486;9.640;2023-05-21T02:31:28;7.95;;;7.15;;
57778;SDS011;43608;49.486;9.640;2023-05-21T02:31:58;7.07;;;6.35;;
57778;SDS011;43608;49.486;9.640;2023-05-21T02:32:29;7.50;;;6.70;;
57778;SDS011;43608;49.486;9.640;2023-05-21T02:33:01;7.60;;;6.22;;
57778;SDS011;43608;49.486;9.640;2023-05-21T02:33:31;7.60;;;6.80;;
57778;SDS011;43608;49.486;9.640;2023-05-21T02:34:02;7.50;;;6.72;;
57778;SDS011;43608;49.486;9.640;2023-05-21T02:34:32;7.60;;;6.80;;
57778;SDS011;43608;49.486;9.640;2023-05-21T02:35:05;7.15;;;6.40;;
57778;SDS011;43608;49.486;9.640;2023-05-21T02:35:36;8.00;;;6.93;;
57778;SDS011;43608;49.486;9.640;2023-05-21T02:36:09;7.78;;;6.97;;
57778;SDS011;43608;49.486;9.640;2023-05-21T02:36:44;7.22;;;6.50;;
57778;SDS011;43608;49.486;9.640;2023-05-21T02:37:18;7.65;;;6.63;;
57778;SDS011;43608;49.486;9.640;2023-05-21T02:37:48;7.78;;;6.95;;
57778;SDS011;43608;49.486;9.640;2023-05-21T02:38:19;7.40;;;6.45;;
57778;SDS011;43608;49.486;9.640;2023-05-21T02:38:52;7.40;;;6.40;;
57778;SDS011;43608;49.486;9.640;2023-05-21T02:39:22;7.28;;;6.55;;
57778;SDS011;43608;49.486;9.640;2023-05-21T02:39:55;7.55;;;6.70;;
57778;SDS011;43608;49.486;9.640;2023-05-21T02:40:25;7.70;;;6.88;;
57778;SDS011;43608;49.486;9.640;2023-05-21T02:40:56;7.60;;;6.80;;
57778;SDS011;43608;49.486;9.640;2023-05-21T02:41:26;7.32;;;6.63;;
57778;SDS011;43608;49.486;9.640;2023-05-21T02:41:56;7.68;;;6.88;;
57778;SDS011;43608;49.486;9.640;2023-05-21T02:42:27;7.68;;;6.78;;
57778;SDS011;43608;49.486;9.640;2023-05-21T02:42:57;7.68;;;6.80;;
57778;SDS011;43608;49.486;9.640;2023-05-21T02:43:27;7.82;;;7.03;;
57778;SDS011;43608;49.486;9.640;2023-05-21T02:43:58;7.68;;;6.88;;
57778;SDS011;43608;49.486;9.640;2023-05-21T02:44:28;7.47;;;6.53;;
57778;SDS011;43608;49.486;9.640;2023-05-21T02:44:58;7.32;;;6.47;;
57778;SDS011;43608;49.486;9.640;2023-05-21T02:45:29;7.38;;;6.57;;
57778;SDS011;43608;49.486;9.640;2023-05-21T02:45:59;7.22;;;6.50;;
57778;SDS011;43608;49.486;9.640;2023-05-21T02:46:30;7.93;;;7.13;;
57778;SDS011;43608;49.486;9.640;2023-05-21T02:47:00;7.45;;;6.65;;
57778;SDS011;43608;49.486;9.640;2023-05-21T02:47:30;7.35;;;6.65;;
57778;SDS011;43608;49.486;9.640;2023-05-21T02:48:01;7.35;;;6.47;;
57778;SDS011;43608;49.486;9.640;2023-05-21T02:48:31;7.03;;;6.32;;
57778;SDS011;43608;49.486;9.640;2023-05-21T02:49:02;8.25;;;6.65;;
57778;SDS011;43608;49.486;9.640;2023-05-21T02:49:32;7.10;;;6.38;;
57778;SDS011;43608;49.486;9.640;2023-05-21T02:50:04;7.68;;;6.80;;
57778;SDS011;43608;49.486;9.640;2023-05-21T02:50:35;7.10;;;6.40;;
57778;SDS011;43608;49.486;9.640;2023-05-21T02:51:06;7.93;;;6.90;;
57778;SDS011;43608;49.486;9.640;2023-05-21T02:51:36;7.45;;;6.70;;
57778;SDS011;43608;49.486;9.640;2023-05-21T02:52:06;7.57;;;6.60;;
57778;SDS011;43608;49.486;9.640;2023-05-21T02:52:37;7.43;;;6.63;;
57778;SDS011;43608;49.486;9.640;2023-05-21T02:53:07;7.30;;;6.60;;
57778;SDS011;43608;49.486;9.640;2023-05-21T02:53:38;7.35;;;6.53;;
57778;SDS011;43608;49.486;9.640;2023-05-21T02:54:08;7.72;;;6.32;;
57778;SDS011;43608;49.486;9.640;2023-05-21T02:54:38;7.50;;;6.70;;
57778;SDS011;43608;49.486;9.640;2023-05-21T02:55:09;7.03;;;6.22;;
57778;SDS011;43608;49.486;9.640;2023-05-21T02:55:39;8.48;;;6.60;;
57778;SDS011;43608;49.486;9.640;2023-05-21T02:56:10;7.32;;;6.38;;
57778;SDS011;43608;49.486;9.640;2023-05-21T02:56:41;7.28;;;6.57;;
57778;SDS011;43608;49.486;9.640;2023-05-21T02:57:11;7.65;;;6.85;;
57778;SDS011;43608;49.486;9.640;2023-05-21T02:57:42;7.30;;;6.60;;
57778;SDS011;43608;49.486;9.640;2023-05-21T02:58:12;7.97;;;6.55;;
57778;SDS011;43608;49.486;9.640;2023-05-21T02:58:43;7.53;;;6.60;;
57778;SDS011;43608;49.486;9.640;2023-05-21T02:59:14;7.28;;;6.40;;
57778;SDS011;43608;49.486;9.640;2023-05-21T02:59:44;7.20;;;6.50;;
57778;SDS011;43608;49.486;9.640;2023-05-21T03:00:15;7.60;;;6.80;;
57778;SDS011;43608;49.486;9.640;2023-05-21T03:00:45;7.57;;;6.78;;
57778;SDS011;43608;49.486;9.640;2023-05-21T03:01:16;7.57;;;6.50;;
57778;SDS011;43608;49.486;9.640;2023-05-21T03:01:46;7.22;;;6.53;;
57778;SDS011;43608;49.486;9.640;2023-05-21T03:02:17;7.30;;;6.50;;
57778;SDS011;43608;49.486;9.640;2023-05-21T03:02:47;7.43;;;6.63;;
57778;SDS011;43608;49.486;9.640;2023-05-21T03:03:17;7.63;;;6.72;;
57778;SDS011;43608;49.486;9.640;2023-05-21T03:03:48;7.20;;;6.40;;
57778;SDS011;43608;49.486;9.640;2023-05-21T03:04:18;7.45;;;6.55;;
57778;SDS011;43608;49.486;9.640;2023-05-21T03:04:50;7.00;;;6.30;;
57778;SDS011;43608;49.486;9.640;2023-05-21T03:05:21;7.40;;;6.60;;
57778;SDS011;43608;49.486;9.640;2023-05-21T03:05:51;7.40;;;6.38;;
57778;SDS011;43608;49.486;9.640;2023-05-21T03:06:21;7.68;;;6.78;;
57778;SDS011;43608;49.486;9.640;2023-05-21T03:06:52;7.13;;;6.40;;
57778;SDS011;43608;49.486;9.640;2023-05-21T03:07:24;7.18;;;6.38;;
57778;SDS011;43608;49.486;9.640;2023-05-21T03:07:54;8.50;;;6.93;;
57778;SDS011;43608;49.486;9.640;2023-05-21T03:08:24;7.38;;;6.57;;
57778;SDS011;43608;49.486;9.640;2023-05-21T03:08:55;7.65;;;6.70;;
57778;SDS011;43608;49.486;9.640;2023-05-21T03:09:25;7.25;;;6.55;;
57778;SDS011;43608;49.486;9.640;2023-05-21T03:09:56;7.45;;;6.55;;
57778;SDS011;43608;49.486;9.640;2023-05-21T03:10:26;7.40;;;6.40;;
57778;SDS011;43608;49.486;9.640;2023-05-21T03:10:57;7.43;;;6.68;;